KALX/ALX METAR and TAF weather

Enter ICAO airport designator
Station Type Date Time Source
KALX METAR 2021/04/18 02:55 UTC NOAA

KALX 180255Z AUTO 29004KT 10SM CLR 15/12 A2990 RMK AO2 T01480119


Station Type Date Time Source
KALX Decoded METAR 2021/04/18 02:55 UTC NOAA

Alexander City, Thomas C Russell Field Airport, AL, United States (KALX) 32-54-53N 085-57-46W
Apr 17, 2021 - 10:55 PM EDT / 2021.04.18 0255 UTC
Wind: from the WNW (290 degrees) at 5 MPH (4 KT):0
Visibility: 10 mile(s):0
Sky conditions: clear
Temperature: 58.6 F (14.8 C)
Dew Point: 53.4 F (11.9 C)
Relative Humidity: 82%
Pressure (altimeter): 29.9 in. Hg (1012 hPa)
ob: KALX 180255Z AUTO 29004KT 10SM CLR 15/12 A2990 RMK AO2 T01480119
cycle: 3

Station Type Date Time Source
KALX TAF UTC NOAA

Error!

Example: see airport list